Time;durP1;ratioP1;P1;durP2;ratioP2;P2;SDS_P1;SDS_P2;PMS_P1;PMS_P2;Temp;Humidity;BMP_temperature;BMP_pressure;BME280_temperature;BME280_humidity;BME280_pressure;Samples;Min_cycle;Max_cycle;Signal;HPM_P1;HPM_P2
2022/01/17 00:00:33;;;;;;;1.35;0.70;;;;;;;17.28;28.94;97522.78;5148544;28;20023;-61
2022/01/17 00:03:02;;;;;;;2.55;0.98;;;;;;;17.27;28.58;97521.13;5148531;28;20019;-61
2022/01/17 00:05:28;;;;;;;1.70;1.23;;;;;;;17.24;28.85;97519.72;5148443;28;20090;-61
2022/01/17 00:07:53;;;;;;;1.10;0.55;;;;;;;17.25;28.55;97510.66;5152794;27;20031;-62
2022/01/17 00:10:19;;;;;;;2.53;0.77;;;;;;;17.23;28.92;97507.38;5159857;27;20034;-62
2022/01/17 00:12:46;;;;;;;1.23;0.60;;;;;;;17.19;28.90;97504.31;5148378;27;20022;-62
2022/01/17 00:15:25;;;;;;;1.38;0.82;;;;;;;17.17;28.96;97489.53;5148341;28;20099;-60
2022/01/17 00:18:08;;;;;;;1.50;0.75;;;;;;;17.19;28.71;97476.75;5147527;28;20034;-62
2022/01/17 00:20:33;;;;;;;1.60;0.80;;;;;;;17.18;29.08;97491.16;5148256;28;20034;-64
2022/01/17 00:22:59;;;;;;;2.70;1.17;;;;;;;17.20;28.78;97475.72;5146391;27;20276;-63
2022/01/17 00:25:25;;;;;;;3.05;0.55;;;;;;;17.20;29.05;97473.91;5148237;28;20038;-66
2022/01/17 00:27:51;;;;;;;4.00;0.80;;;;;;;17.23;28.82;97453.94;5148178;27;20035;-63
2022/01/17 00:30:18;;;;;;;4.75;0.90;;;;;;;17.24;29.22;97447.56;5148200;28;20035;-64
2022/01/17 00:32:43;;;;;;;4.00;0.80;;;;;;;17.25;28.88;97443.84;5148187;27;20023;-63
2022/01/17 00:35:09;;;;;;;5.22;1.02;;;;;;;17.28;29.04;97439.91;5148126;28;20125;-64
2022/01/17 00:37:35;;;;;;;3.42;0.90;;;;;;;17.30;29.03;97429.84;5146215;28;20081;-64
2022/01/17 00:40:00;;;;;;;1.73;0.65;;;;;;;17.29;29.06;97412.97;5148161;28;20098;-64
2022/01/17 00:42:26;;;;;;;2.08;0.80;;;;;;;17.29;29.07;97409.47;5147952;27;20124;-64
2022/01/17 00:44:51;;;;;;;5.18;0.98;;;;;;;17.31;28.93;97399.41;5148533;27;20202;-63
2022/01/17 00:47:17;;;;;;;2.28;1.00;;;;;;;17.33;28.92;97392.00;5151927;27;20043;-64
2022/01/17 00:49:43;;;;;;;3.35;0.88;;;;;;;17.33;28.86;97382.09;5151959;27;20174;-64
2022/01/17 00:52:09;;;;;;;1.90;0.50;;;;;;;17.34;28.69;97391.75;5150680;27;20031;-63
2022/01/17 00:54:34;;;;;;;2.58;0.93;;;;;;;17.33;28.67;97382.09;5151051;27;20023;-64
2022/01/17 00:57:00;;;;;;;1.73;0.85;;;;;;;17.32;28.52;97374.31;5151756;27;20035;-64
2022/01/17 00:59:26;;;;;;;2.10;0.90;;;;;;;17.34;28.68;97364.22;5151730;27;20220;-64
2022/01/17 01:01:51;;;;;;;1.38;0.70;;;;;;;17.34;28.28;97367.69;5151597;27;20015;-64
2022/01/17 01:04:17;;;;;;;2.42;0.95;;;;;;;17.34;28.60;97350.84;5151683;27;20031;-64
2022/01/17 01:06:42;;;;;;;2.10;0.80;;;;;;;17.33;28.39;97352.69;5151462;27;20087;-64
2022/01/17 01:09:08;;;;;;;1.65;0.60;;;;;;;17.34;28.49;97340.16;5150204;27;20046;-64
2022/01/17 01:11:34;;;;;;;1.80;0.80;;;;;;;17.32;28.33;97332.34;5151512;27;20033;-63
2022/01/17 01:14:00;;;;;;;1.38;0.80;;;;;;;17.31;28.62;97341.41;5151432;27;20023;-63
2022/01/17 01:19:09;;;;;;;;;;;;;;;17.26;28.33;97322.56;5151760;27;20071;-64
2022/01/17 01:29:55;;;;;;;2.63;0.73;;;;;;;17.26;28.67;97295.81;5151013;27;20069;-64
2022/01/17 01:32:24;;;;;;;1.52;0.70;;;;;;;17.26;28.47;97290.47;5150987;27;20043;-64
2022/01/17 01:34:53;;;;;;;1.83;0.68;;;;;;;17.25;28.71;97294.19;5151159;27;20210;-63
2022/01/17 01:37:19;;;;;;;1.65;0.70;;;;;;;17.28;28.48;97285.72;5151010;27;20228;-63
2022/01/17 01:39:46;;;;;;;1.75;0.60;;;;;;;17.27;28.46;97292.13;5149058;27;20060;-63
2022/01/17 01:42:16;;;;;;;1.65;0.50;;;;;;;17.29;28.33;97286.53;5150843;27;20015;-63
2022/01/17 01:44:41;;;;;;;0.93;0.60;;;;;;;17.30;28.64;97280.97;5150846;27;20087;-63
2022/01/17 01:47:07;;;;;;;2.67;1.08;;;;;;;17.30;28.44;97274.81;5150756;27;20018;-64
2022/01/17 01:49:33;;;;;;;1.13;0.57;;;;;;;17.28;28.63;97272.34;5132835;27;20033;-63
2022/01/17 01:51:58;;;;;;;2.58;1.17;;;;;;;17.28;28.43;97267.00;5150663;27;20019;-64
2022/01/17 01:54:24;;;;;;;1.17;0.45;;;;;;;17.26;28.57;97274.44;5150728;27;20042;-64
2022/01/17 01:56:51;;;;;;;1.33;0.60;;;;;;;17.24;28.70;97265.81;5146619;27;20023;-64
2022/01/17 01:59:20;;;;;;;2.25;0.90;;;;;;;17.29;28.36;97263.28;5132489;27;20029;-64
2022/01/17 02:01:46;;;;;;;1.10;0.60;;;;;;;17.30;28.53;97256.91;5150284;27;20018;-65
2022/01/17 02:04:13;;;;;;;3.55;0.85;;;;;;;17.31;28.67;97241.72;5150473;27;20050;-64
2022/01/17 02:06:39;;;;;;;3.13;0.90;;;;;;;17.29;28.81;97231.22;5150715;27;20185;-63
2022/01/17 02:09:05;;;;;;;0.90;0.50;;;;;;;17.27;28.47;97224.47;5150323;27;20050;-64
2022/01/17 02:11:35;;;;;;;2.55;0.80;;;;;;;17.28;28.71;97213.53;5148571;27;20068;-64
2022/01/17 02:14:01;;;;;;;1.58;0.80;;;;;;;17.28;28.60;97194.84;5150164;27;20098;-63
2022/01/17 02:16:27;;;;;;;2.15;0.90;;;;;;;17.29;28.73;97191.13;5150158;27;20026;-64
2022/01/17 02:18:52;;;;;;;2.08;0.90;;;;;;;17.28;28.63;97181.47;5145101;27;20086;-64
2022/01/17 02:21:31;;;;;;;1.50;0.80;;;;;;;17.29;28.58;97176.97;5129472;28;20015;-65
2022/01/17 02:23:58;;;;;;;0.98;0.65;;;;;;;17.28;28.28;97172.66;5129425;28;20046;-64
2022/01/17 02:26:24;;;;;;;1.55;0.77;;;;;;;17.27;28.57;97173.69;5130842;27;20027;-63
2022/01/17 02:28:53;;;;;;;2.30;0.70;;;;;;;17.24;28.34;97167.75;5149785;27;20058;-64
2022/01/17 02:31:19;;;;;;;3.28;0.77;;;;;;;17.23;28.54;97158.09;5149860;27;20078;-64
2022/01/17 02:33:45;;;;;;;2.20;0.90;;;;;;;17.26;28.41;97145.34;5149817;27;20053;-64
2022/01/17 02:36:12;;;;;;;1.95;0.77;;;;;;;17.26;28.30;97138.16;5149843;27;20045;-64
2022/01/17 02:38:41;;;;;;;2.53;0.80;;;;;;;17.24;28.30;97133.00;5149748;27;20030;-65
2022/01/17 02:41:07;;;;;;;1.65;0.70;;;;;;;17.22;28.57;97131.59;5149853;27;20078;-65
2022/01/17 02:43:34;;;;;;;1.13;0.50;;;;;;;17.22;28.39;97124.41;5147832;27;20047;-64
2022/01/17 02:48:29;;;;;;;2.47;0.75;;;;;;;17.21;28.23;97109.41;5149919;27;20222;-64
2022/01/17 02:50:56;;;;;;;2.00;0.63;;;;;;;17.21;28.30;97109.41;5149525;27;20146;-64
2022/01/17 02:53:22;;;;;;;1.15;0.63;;;;;;;17.21;28.46;97124.63;5149254;27;20267;-64
2022/01/17 02:55:50;;;;;;;3.10;1.08;;;;;;;17.21;28.23;97111.25;5150038;27;20031;-65
2022/01/17 02:58:20;;;;;;;1.23;0.60;;;;;;;17.22;28.43;97112.91;5147532;27;20185;-64
2022/01/17 03:00:48;;;;;;;2.05;0.93;;;;;;;17.22;28.33;97102.22;5149358;27;20068;-64
2022/01/17 03:03:15;;;;;;;1.95;0.90;;;;;;;17.27;28.61;97094.34;5149249;27;20034;-61
2022/01/17 03:05:41;;;;;;;2.28;1.05;;;;;;;17.28;28.53;97089.81;5149292;27;20034;-64
2022/01/17 03:08:07;;;;;;;1.52;0.80;;;;;;;17.29;28.44;97088.78;5148794;27;20079;-63
2022/01/17 03:10:43;;;;;;;1.55;0.80;;;;;;;17.28;28.49;97081.78;5148650;27;20034;-63
2022/01/17 03:13:12;;;;;;;3.08;0.75;;;;;;;17.28;28.53;97090.59;5147435;27;20090;-62
2022/01/17 03:15:39;;;;;;;2.00;0.80;;;;;;;17.27;28.57;97080.16;5149121;27;20037;-64
2022/01/17 03:18:04;;;;;;;2.30;0.98;;;;;;;17.27;28.64;97083.66;5148595;27;20038;-63
2022/01/17 03:20:31;;;;;;;2.38;0.73;;;;;;;17.30;28.70;97074.38;5148997;27;20030;-63
2022/01/17 03:22:57;;;;;;;3.60;0.98;;;;;;;17.28;28.53;97077.25;5148870;27;20023;-64
2022/01/17 03:25:23;;;;;;;2.17;0.82;;;;;;;17.25;28.65;97059.00;5148878;27;20026;-63
2022/01/17 03:27:49;;;;;;;1.75;0.60;;;;;;;17.25;28.62;97064.34;5148733;27;20086;-64
2022/01/17 03:30:15;;;;;;;1.52;0.57;;;;;;;17.25;28.90;97056.34;5146912;27;20088;-63
2022/01/17 03:32:41;;;;;;;2.00;0.70;;;;;;;17.28;28.81;97055.06;5148712;27;20019;-63
2022/01/17 03:35:07;;;;;;;4.18;0.80;;;;;;;17.27;28.60;97045.41;5148737;27;20058;-63
2022/01/17 03:37:33;;;;;;;3.05;0.80;;;;;;;17.24;28.84;97038.69;5148661;27;20011;-63
2022/01/17 03:39:58;;;;;;;1.50;0.90;;;;;;;17.27;28.67;97038.22;5148746;27;20044;-63
2022/01/17 03:42:24;;;;;;;1.40;0.70;;;;;;;17.27;28.61;97038.22;5148699;27;20007;-63
2022/01/17 03:44:51;;;;;;;2.00;0.73;;;;;;;17.26;28.68;97023.22;5146906;27;20023;-64
2022/01/17 03:47:17;;;;;;;1.10;0.65;;;;;;;17.28;28.68;97014.97;5148632;27;20023;-64
2022/01/17 03:49:42;;;;;;;2.92;0.88;;;;;;;17.26;28.57;97015.22;5148676;27;20019;-63
2022/01/17 03:52:08;;;;;;;2.15;0.63;;;;;;;17.27;28.69;97011.50;5148451;27;20235;-64
2022/01/17 03:54:34;;;;;;;1.35;0.60;;;;;;;17.26;28.51;97011.72;5148595;28;20023;-64
2022/01/17 03:57:00;;;;;;;2.15;0.88;;;;;;;17.22;28.53;96998.00;5148504;27;20240;-63
2022/01/17 03:59:26;;;;;;;2.72;0.82;;;;;;;17.23;28.61;96996.97;5147915;28;20019;-63
2022/01/17 04:01:52;;;;;;;1.80;0.60;;;;;;;17.24;28.77;96993.25;5147671;27;20022;-63
2022/01/17 04:04:17;;;;;;;1.70;0.70;;;;;;;17.22;28.67;96987.31;5148475;28;20172;-63
2022/01/17 04:06:43;;;;;;;1.83;0.80;;;;;;;17.24;28.45;96978.00;5148235;28;20035;-64
2022/01/17 04:09:10;;;;;;;2.15;0.80;;;;;;;17.25;28.74;96978.84;5148345;27;20019;-63
2022/01/17 04:11:36;;;;;;;1.38;0.70;;;;;;;17.27;28.81;96982.09;5148232;28;20041;-63
2022/01/17 04:14:03;;;;;;;2.88;0.70;;;;;;;17.27;28.51;96966.06;5148228;27;20019;-63
2022/01/17 04:16:29;;;;;;;1.63;0.80;;;;;;;17.27;28.56;96960.72;5147035;28;20023;-63
2022/01/17 04:18:55;;;;;;;1.15;0.55;;;;;;;17.27;28.29;96959.91;5148360;27;20050;-63
2022/01/17 04:21:20;;;;;;;1.88;0.70;;;;;;;17.28;28.53;96964.19;5151313;27;20026;-64
2022/01/17 04:23:46;;;;;;;1.60;0.90;;;;;;;17.25;28.31;96944.09;5152441;27;20128;-65
2022/01/17 04:26:12;;;;;;;2.28;0.88;;;;;;;17.27;28.29;96938.53;5152371;27;20128;-65
2022/01/17 04:28:37;;;;;;;2.25;0.80;;;;;;;17.25;28.49;96930.75;5134328;27;20154;-66
2022/01/17 04:31:03;;;;;;;1.92;0.65;;;;;;;17.24;28.45;96926.44;5151704;27;20081;-67
2022/01/17 04:33:29;;;;;;;2.50;1.00;;;;;;;17.21;28.35;96927.69;5152266;27;20037;-63
2022/01/17 04:35:54;;;;;;;1.77;1.33;;;;;;;17.20;28.40;96912.72;5150256;27;20126;-61
2022/01/17 04:38:21;;;;;;;2.28;0.90;;;;;;;17.21;28.37;96908.19;5152181;27;20031;-64
2022/01/17 04:40:59;;;;;;;1.85;1.05;;;;;;;17.19;28.37;96895.06;5152059;27;20024;-64
2022/01/17 04:46:04;;;;;;;1.65;0.90;;;;;;;17.19;28.56;96899.56;5152434;27;20224;-64
2022/01/17 04:48:30;;;;;;;2.92;0.80;;;;;;;17.18;28.21;96885.41;5151955;27;20047;-64
2022/01/17 04:50:55;;;;;;;1.20;0.70;;;;;;;17.18;28.29;96872.06;5151918;27;20141;-64
2022/01/17 04:53:22;;;;;;;2.33;0.70;;;;;;;17.17;28.37;96864.25;5150099;27;20027;-63
2022/01/17 04:55:49;;;;;;;1.65;0.82;;;;;;;17.17;28.23;96850.91;5151758;27;20015;-63
2022/01/17 04:58:15;;;;;;;3.08;0.82;;;;;;;17.14;28.41;96873.56;5151480;27;20041;-64
2022/01/17 05:00:46;;;;;;;1.83;0.68;;;;;;;17.15;28.32;96863.66;5151722;27;20065;-64
2022/01/17 05:03:20;;;;;;;1.80;0.77;;;;;;;17.19;28.27;96851.47;5151685;27;20128;-64
2022/01/17 05:05:46;;;;;;;1.42;0.73;;;;;;;17.18;28.46;96852.53;5151671;27;20144;-64
2022/01/17 05:08:12;;;;;;;2.13;1.10;;;;;;;17.19;28.39;96835.44;5149717;27;20079;-63
2022/01/17 05:10:38;;;;;;;1.92;1.00;;;;;;;17.17;28.46;96835.69;5151848;27;20224;-64
2022/01/17 05:13:04;;;;;;;4.72;0.90;;;;;;;17.17;28.61;96834.88;5151221;27;20015;-65
2022/01/17 05:20:47;;;;;;;1.67;0.90;;;;;;;17.15;28.79;96832.44;5112127;27;20019;-65
2022/01/17 05:23:13;;;;;;;1.83;1.00;;;;;;;17.17;28.84;96822.34;5151082;27;20256;-65
2022/01/17 05:25:39;;;;;;;2.05;0.90;;;;;;;17.17;28.93;96824.19;5133176;27;20132;-65
2022/01/17 05:28:05;;;;;;;2.25;0.80;;;;;;;17.16;28.76;96815.34;5151031;27;20231;-65
2022/01/17 05:30:31;;;;;;;2.90;1.02;;;;;;;17.19;28.52;96811.41;5150944;27;20038;-65
2022/01/17 05:32:59;;;;;;;2.15;1.00;;;;;;;17.16;28.83;96807.34;5150070;27;20019;-65
2022/01/17 05:35:25;;;;;;;2.17;1.00;;;;;;;17.18;28.56;96807.94;5151038;27;20034;-64
2022/01/17 05:37:51;;;;;;;3.50;0.77;;;;;;;17.17;28.60;96798.28;5150938;27;20051;-65
2022/01/17 05:40:17;;;;;;;2.38;1.00;;;;;;;17.17;28.73;96797.47;5150905;27;20035;-65
2022/01/17 05:42:43;;;;;;;2.05;0.95;;;;;;;17.13;28.76;96789.09;5131002;27;20015;-63
2022/01/17 05:45:11;;;;;;;1.42;0.75;;;;;;;17.15;28.79;96788.84;5150746;27;20086;-65
2022/01/17 05:47:37;;;;;;;2.28;1.10;;;;;;;17.15;28.83;96791.53;5150747;27;20240;-65
2022/01/17 05:50:05;;;;;;;1.45;0.70;;;;;;;17.15;28.79;96784.34;5150698;27;20026;-65
2022/01/17 05:52:31;;;;;;;3.15;1.20;;;;;;;17.16;29.01;96780.63;5150413;27;20023;-66
2022/01/17 05:54:58;;;;;;;2.05;1.27;;;;;;;17.15;29.05;96770.16;5150654;27;20053;-65
2022/01/17 05:57:25;;;;;;;2.92;1.02;;;;;;;17.16;28.69;96766.44;5150516;27;20275;-65
2022/01/17 05:59:50;;;;;;;2.00;0.90;;;;;;;17.16;28.76;96755.75;5148920;27;20061;-65
2022/01/17 06:02:16;;;;;;;1.48;1.00;;;;;;;17.18;28.64;96743.81;5150495;27;20132;-65
2022/01/17 06:04:42;;;;;;;2.58;1.30;;;;;;;17.19;28.77;96733.91;5150557;27;20019;-65
2022/01/17 06:07:08;;;;;;;2.13;0.82;;;;;;;17.19;28.80;96716.03;5150732;27;20019;-65
2022/01/17 06:09:33;;;;;;;2.15;1.08;;;;;;;17.21;28.94;96691.75;5150485;27;20177;-65
2022/01/17 06:11:59;;;;;;;2.20;1.00;;;;;;;17.19;28.78;96689.31;5150199;27;20011;-65
2022/01/17 06:14:25;;;;;;;2.70;1.33;;;;;;;17.16;29.04;96684.44;5148437;27;20087;-65
2022/01/17 06:16:51;;;;;;;2.35;1.02;;;;;;;17.14;28.80;96656.31;5150275;27;20087;-65
2022/01/17 06:19:17;;;;;;;1.70;1.08;;;;;;;17.19;28.92;96702.69;5150124;27;20022;-65
2022/01/17 06:21:43;;;;;;;1.90;1.10;;;;;;;17.20;29.00;96743.56;5148441;27;20007;-66
2022/01/17 06:24:10;;;;;;;2.13;1.13;;;;;;;17.21;29.14;96754.00;5150076;27;20236;-64
2022/01/17 06:26:41;;;;;;;2.83;0.90;;;;;;;17.20;29.03;96805.84;5149999;27;20070;-65
2022/01/17 06:29:09;;;;;;;2.17;1.05;;;;;;;17.23;29.09;96829.41;5149836;27;20027;-65
2022/01/17 06:31:35;;;;;;;4.55;1.50;;;;;;;17.24;29.03;96832.91;5149880;27;20073;-64
2022/01/17 06:34:02;;;;;;;2.22;0.90;;;;;;;17.27;28.91;96837.81;5149795;27;20023;-67
2022/01/17 06:36:28;;;;;;;3.55;1.10;;;;;;;17.28;28.98;96799.31;5147978;27;20082;-65
2022/01/17 06:38:53;;;;;;;3.13;1.50;;;;;;;17.27;28.98;96773.66;5150029;27;20023;-65
2022/01/17 06:41:20;;;;;;;2.85;1.50;;;;;;;17.26;28.76;96734.63;5149826;27;20272;-65
2022/01/17 06:43:46;;;;;;;4.25;1.25;;;;;;;17.28;28.90;96702.31;5149512;27;20143;-64
2022/01/17 06:46:12;;;;;;;3.42;1.48;;;;;;;17.26;28.92;96670.50;5139303;27;20118;-64
2022/01/17 06:48:38;;;;;;;2.95;1.33;;;;;;;17.28;28.87;96652.34;5128886;28;20039;-64
2022/01/17 06:51:04;;;;;;;2.80;1.17;;;;;;;17.28;28.73;96648.88;5127871;28;20065;-65
2022/01/17 06:53:30;;;;;;;4.72;1.50;;;;;;;17.31;28.83;96648.41;5128761;28;20011;-65
2022/01/17 06:55:56;;;;;;;3.38;1.45;;;;;;;17.30;28.64;96639.56;5128808;28;20023;-65
2022/01/17 06:58:22;;;;;;;4.22;1.48;;;;;;;17.31;28.46;96667.91;5128732;28;20098;-65
2022/01/17 07:00:48;;;;;;;2.88;1.40;;;;;;;17.33;28.65;96654.34;5128753;28;20015;-65
2022/01/17 07:03:14;;;;;;;1.70;1.25;;;;;;;17.34;28.58;96643.41;5128639;28;20050;-64
2022/01/17 07:05:40;;;;;;;2.08;1.20;;;;;;;17.35;28.77;96636.22;5132380;27;20011;-64
2022/01/17 07:08:05;;;;;;;3.63;1.38;;;;;;;17.35;28.61;96647.69;5149147;27;20018;-65
2022/01/17 07:10:31;;;;;;;2.22;1.08;;;;;;;17.35;28.77;96644.22;5149039;27;20247;-66
2022/01/17 07:12:57;;;;;;;2.00;1.23;;;;;;;17.34;28.69;96659.44;5149034;27;20140;-65
2022/01/17 07:15:23;;;;;;;2.63;1.27;;;;;;;17.36;28.63;96665.34;5149049;27;20079;-65
2022/01/17 07:17:49;;;;;;;3.70;1.40;;;;;;;17.36;28.72;96638.63;5148871;27;20344;-65
2022/01/17 07:20:14;;;;;;;2.20;1.45;;;;;;;17.36;28.84;96641.31;5149061;27;20011;-65
2022/01/17 07:22:40;;;;;;;4.22;1.90;;;;;;;17.36;28.55;96630.63;5148931;27;20086;-65
2022/01/17 07:25:06;;;;;;;4.38;1.58;;;;;;;17.37;28.53;96637.59;5148979;27;20026;-65
2022/01/17 07:27:31;;;;;;;3.55;1.85;;;;;;;17.38;28.71;96646.41;5148887;27;20018;-65
2022/01/17 07:29:57;;;;;;;2.78;1.40;;;;;;;17.35;28.58;96625.53;5148333;27;20039;-64
2022/01/17 07:32:24;;;;;;;3.30;1.75;;;;;;;17.34;28.62;96616.69;5148437;27;20046;-64
2022/01/17 07:34:49;;;;;;;2.33;1.30;;;;;;;17.34;28.59;96621.22;5148683;27;20064;-65
2022/01/17 07:37:15;;;;;;;3.60;1.65;;;;;;;17.36;28.73;96617.25;5148636;27;20105;-65
2022/01/17 07:39:40;;;;;;;4.45;1.67;;;;;;;17.36;28.70;96608.41;5148717;27;20030;-65
2022/01/17 07:42:06;;;;;;;5.05;1.73;;;;;;;17.38;28.96;96625.03;5148751;27;20075;-65
2022/01/17 07:44:34;;;;;;;4.45;1.33;;;;;;;17.38;28.88;96592.94;5130700;27;20190;-65
2022/01/17 07:47:01;;;;;;;4.55;1.70;;;;;;;17.36;28.79;96562.97;5148632;27;20015;-65
2022/01/17 07:49:28;;;;;;;3.13;1.58;;;;;;;17.33;28.82;96568.81;5148628;27;20015;-64
2022/01/17 07:52:03;;;;;;;3.67;2.58;;;;;;;17.35;28.57;96575.53;5148421;27;20087;-65
2022/01/17 07:54:32;;;;;;;4.57;1.40;;;;;;;17.35;28.74;96559.50;5148187;27;20019;-65
2022/01/17 07:56:59;;;;;;;4.05;1.90;;;;;;;17.37;28.87;96553.91;5127874;28;20027;-63
2022/01/17 07:59:26;;;;;;;4.38;2.13;;;;;;;17.36;28.81;96555.78;5127975;28;20022;-64
2022/01/17 08:01:51;;;;;;;2.97;1.65;;;;;;;17.37;28.79;96554.75;5127825;28;20015;-64
2022/01/17 08:04:17;;;;;;;4.40;1.92;;;;;;;17.35;28.81;96545.34;5127891;28;20038;-63
2022/01/17 08:06:46;;;;;;;4.75;2.33;;;;;;;17.39;28.84;96562.50;5127890;28;20019;-64
2022/01/17 08:09:25;;;;;;;4.35;2.60;;;;;;;17.39;28.64;96558.00;5128116;28;20172;-64
2022/01/17 08:11:51;;;;;;;5.50;1.92;;;;;;;17.42;28.82;96551.34;5127673;28;20023;-64
2022/01/17 08:14:16;;;;;;;3.67;2.13;;;;;;;17.43;28.59;96552.97;5127783;28;20143;-64
2022/01/17 08:16:42;;;;;;;4.13;2.20;;;;;;;17.44;28.75;96546.59;5135034;28;20030;-64
2022/01/17 08:19:08;;;;;;;5.30;2.25;;;;;;;17.44;28.62;96532.38;5148233;27;20015;-64
2022/01/17 08:21:33;;;;;;;3.15;1.88;;;;;;;17.45;28.76;96526.00;5148268;28;20008;-64
2022/01/17 08:24:00;;;;;;;6.18;2.17;;;;;;;17.43;28.61;96531.59;5148195;27;20019;-64
2022/01/17 08:26:26;;;;;;;3.70;1.83;;;;;;;17.44;28.63;96532.38;5148327;28;20023;-64
2022/01/17 08:28:52;;;;;;;3.00;1.60;;;;;;;17.44;28.71;96522.53;5148048;27;20019;-64
2022/01/17 08:31:18;;;;;;;4.47;2.22;;;;;;;17.42;28.86;96519.28;5148255;28;20042;-64
2022/01/17 08:33:44;;;;;;;3.72;2.30;;;;;;;17.42;28.77;96524.63;5148217;27;20071;-65
2022/01/17 08:36:11;;;;;;;4.82;2.15;;;;;;;17.42;28.59;96513.13;5148174;28;20026;-64
2022/01/17 08:38:38;;;;;;;4.13;2.28;;;;;;;17.42;28.58;96515.81;5148057;27;20022;-64
2022/01/17 08:41:03;;;;;;;5.18;2.40;;;;;;;17.45;28.89;96509.97;5148150;28;20163;-66
2022/01/17 08:43:29;;;;;;;3.42;1.95;;;;;;;17.45;28.62;96523.31;5148078;27;20317;-66
2022/01/17 08:45:55;;;;;;;4.80;2.20;;;;;;;17.43;28.81;96514.72;5130034;28;20019;-65
2022/01/17 08:48:20;;;;;;;4.07;2.15;;;;;;;17.42;28.74;96513.94;5147992;28;20174;-65
2022/01/17 08:50:47;;;;;;;3.63;2.00;;;;;;;17.43;28.93;96520.06;5147881;28;20027;-65
2022/01/17 08:53:14;;;;;;;4.60;2.40;;;;;;;17.43;29.03;96509.38;5148248;28;20090;-65
2022/01/17 08:55:42;;;;;;;4.32;2.10;;;;;;;17.41;28.84;96496.28;5148047;28;20023;-65
2022/01/17 08:58:09;;;;;;;4.65;2.30;;;;;;;17.37;29.11;96503.97;5147949;28;20082;-65
2022/01/17 09:00:35;;;;;;;5.13;2.50;;;;;;;17.37;28.63;96516.50;5148128;28;20121;-65
2022/01/17 09:03:04;;;;;;;3.75;2.47;;;;;;;17.36;29.17;96502.34;5147115;27;20087;-63
2022/01/17 09:05:32;;;;;;;4.18;1.88;;;;;;;17.36;29.04;96493.50;5148142;28;20285;-63
2022/01/17 09:07:57;;;;;;;4.43;2.20;;;;;;;17.36;29.00;96499.66;5149933;27;20015;-63
2022/01/17 09:10:23;;;;;;;4.10;2.15;;;;;;;17.41;28.95;96506.16;5151470;27;20053;-64
2022/01/17 09:12:51;;;;;;;3.70;2.47;;;;;;;17.43;29.24;96496.00;5151346;27;20026;-64
2022/01/17 09:15:17;;;;;;;5.45;2.22;;;;;;;17.43;29.15;96479.97;5151370;27;20019;-63
2022/01/17 09:17:43;;;;;;;4.90;2.25;;;;;;;17.45;29.43;96483.22;5151141;27;20076;-64
2022/01/17 09:20:10;;;;;;;4.55;2.58;;;;;;;17.45;29.46;96497.41;5151391;27;20019;-63
2022/01/17 09:22:36;;;;;;;5.75;2.65;;;;;;;17.44;29.37;96476.25;5151115;27;20051;-63
2022/01/17 09:25:02;;;;;;;6.85;2.92;;;;;;;17.46;29.22;96485.69;5151132;27;20220;-63
2022/01/17 09:27:27;;;;;;;4.50;2.17;;;;;;;17.46;29.24;96477.66;5151149;27;20023;-62
2022/01/17 09:29:53;;;;;;;6.50;2.75;;;;;;;17.45;29.14;96476.03;5151229;27;20171;-62
2022/01/17 09:32:19;;;;;;;14.98;3.42;;;;;;;17.46;29.24;96480.34;5150962;27;20022;-65
2022/01/17 09:34:46;;;;;;;8.32;3.17;;;;;;;17.55;29.37;96464.72;5151065;27;20158;-64
2022/01/17 09:37:12;;;;;;;10.50;3.35;;;;;;;17.67;29.36;96459.28;5150905;27;20011;-64
2022/01/17 09:39:38;;;;;;;5.97;2.60;;;;;;;17.80;29.39;96452.81;5150747;27;20026;-64
2022/01/17 09:42:06;;;;;;;6.97;2.95;;;;;;;17.91;29.13;96451.09;5150909;27;20048;-64
2022/01/17 09:44:33;;;;;;;5.78;2.72;;;;;;;17.95;29.22;96436.16;5150806;27;20022;-64
2022/01/17 09:46:59;;;;;;;6.35;2.63;;;;;;;17.97;29.35;96447.44;5150716;27;20027;-63
2022/01/17 09:49:37;;;;;;;8.55;3.58;;;;;;;18.01;29.24;96440.59;5150776;27;20035;-64
2022/01/17 09:52:13;;;;;;;5.50;2.50;;;;;;;18.04;29.13;96439.28;5150626;27;20015;-65
2022/01/17 09:54:42;;;;;;;6.20;2.72;;;;;;;18.08;29.01;96432.38;5150852;27;20033;-64
2022/01/17 09:57:11;;;;;;;5.85;2.47;;;;;;;18.12;29.19;96431.66;5150528;27;20019;-65
2022/01/17 09:59:39;;;;;;;4.82;2.45;;;;;;;18.17;29.11;96428.22;5150621;27;20086;-64
2022/01/17 10:02:07;;;;;;;5.57;2.60;;;;;;;18.22;29.15;96420.28;5150514;27;20288;-65
2022/01/17 10:04:34;;;;;;;7.53;3.15;;;;;;;18.26;28.94;96425.94;5150515;27;20015;-64
2022/01/17 10:07:01;;;;;;;5.15;2.67;;;;;;;18.27;28.99;96423.03;5150305;27;20017;-64
2022/01/17 10:09:28;;;;;;;5.32;2.30;;;;;;;18.31;29.15;96420.66;5148607;27;20017;-63
2022/01/17 10:11:59;;;;;;;5.07;2.70;;;;;;;18.34;28.98;96414.81;5150271;27;20240;-63
2022/01/17 10:14:26;;;;;;;4.28;2.65;;;;;;;18.36;29.02;96407.38;5150384;27;20074;-64
2022/01/17 10:16:51;;;;;;;4.90;2.53;;;;;;;18.40;28.75;96405.00;5141590;27;20121;-65
2022/01/17 10:19:21;;;;;;;6.90;3.10;;;;;;;18.42;28.85;96406.34;5111560;28;20011;-63
2022/01/17 10:21:50;;;;;;;6.57;2.33;;;;;;;18.44;28.84;96395.41;5139860;27;20018;-64
2022/01/17 10:35:29;;;;;;;4.57;2.53;;;;;;;18.60;28.79;96383.81;5149711;27;20041;-64
2022/01/17 10:38:00;;;;;;;4.28;2.38;;;;;;;18.61;28.85;96374.72;5149580;27;20033;-65
2022/01/17 10:40:27;;;;;;;;;;;;;;;18.61;28.65;96368.56;5150116;27;20220;-64
2022/01/17 10:42:54;;;;;;;4.78;3.13;;;;;;;18.66;28.59;96370.47;5149458;27;19899;-63
2022/01/17 10:45:24;;;;;;;3.47;2.50;;;;;;;18.70;28.49;96359.00;5149920;27;20030;-65
2022/01/17 10:47:57;;;;;;;5.80;3.20;;;;;;;18.69;28.61;96367.31;5149381;27;20047;-63
2022/01/17 10:50:39;;;;;;;6.30;2.95;;;;;;;18.72;28.65;96353.41;5149629;27;20300;-63
2022/01/17 10:53:11;;;;;;;4.55;2.40;;;;;;;18.74;28.82;96348.63;5148757;27;20011;-64
2022/01/17 10:55:45;;;;;;;4.65;2.97;;;;;;;18.72;28.67;96348.06;5148827;27;20019;-64
2022/01/17 10:58:15;;;;;;;4.38;2.70;;;;;;;18.71;28.75;96352.59;5149145;27;20080;-64
2022/01/17 11:00:46;;;;;;;7.10;2.95;;;;;;;18.72;28.84;96346.19;5148846;27;20019;-64
2022/01/17 11:03:13;;;;;;;;;;;;;;;18.72;28.77;96345.38;5149552;27;20074;-64
2022/01/17 11:05:42;;;;;;;4.13;2.55;;;;;;;18.74;28.88;96345.94;5149184;27;19962;-64
2022/01/17 11:08:08;;;;;;;5.88;2.65;;;;;;;18.76;28.66;96338.44;5149009;27;20230;-63
2022/01/17 11:10:38;;;;;;;7.38;2.75;;;;;;;18.81;28.67;96346.53;5148877;27;20213;-63
2022/01/17 11:13:06;;;;;;;4.57;2.95;;;;;;;18.81;28.64;96351.91;5148626;27;20017;-63
2022/01/17 11:15:34;;;;;;;5.22;2.67;;;;;;;18.79;28.65;96340.63;5149044;27;20041;-64
2022/01/17 11:18:05;;;;;;;3.88;2.35;;;;;;;18.80;28.66;96336.88;5130403;27;20236;-64
2022/01/17 11:20:32;;;;;;;4.30;2.65;;;;;;;18.82;28.67;96326.72;5128252;28;20141;-64
2022/01/17 11:22:59;;;;;;;4.28;2.80;;;;;;;18.83;28.84;96325.69;5135461;27;20050;-63
2022/01/17 11:25:34;;;;;;;4.75;3.03;;;;;;;18.84;28.85;96321.94;5148734;27;20041;-64
2022/01/17 11:28:02;;;;;;;4.18;2.88;;;;;;;18.86;28.73;96317.13;5148752;27;20019;-64
2022/01/17 11:30:29;;;;;;;4.88;2.78;;;;;;;18.93;28.66;96316.94;5147871;27;20034;-64
2022/01/17 11:32:56;;;;;;;5.43;2.85;;;;;;;18.93;28.90;96311.56;5148637;27;20039;-64
2022/01/17 11:35:24;;;;;;;4.05;2.90;;;;;;;18.89;28.74;96316.63;5148674;27;20015;-63
2022/01/17 11:37:54;;;;;;;4.07;2.63;;;;;;;18.90;28.77;96304.03;5148507;27;20027;-64
2022/01/17 11:40:27;;;;;;;4.45;3.13;;;;;;;18.94;28.81;96302.50;5148603;27;20015;-64
2022/01/17 11:42:53;;;;;;;4.22;2.55;;;;;;;18.96;28.75;96289.66;5148574;27;20025;-64
2022/01/17 11:45:22;;;;;;;4.78;2.85;;;;;;;18.97;28.81;96285.09;5148410;27;20238;-65
2022/01/17 11:48:20;;;;;;;5.80;3.00;;;;;;;18.98;28.88;96286.72;5148419;27;20090;-65
2022/01/17 11:50:48;;;;;;;5.10;2.53;;;;;;;18.99;28.83;96293.69;5103163;27;20030;-63
2022/01/17 11:53:13;;;;;;;4.18;2.47;;;;;;;19.01;28.73;96289.69;5148514;27;20026;-62
2022/01/17 11:55:42;;;;;;;4.60;2.80;;;;;;;19.03;28.60;96292.13;5148338;28;20003;-62
2022/01/17 11:58:29;;;;;;;4.13;2.70;;;;;;;19.03;28.86;96284.09;5148534;27;20007;-67
2022/01/17 12:00:57;;;;;;;10.32;3.05;;;;;;;18.99;29.06;96286.47;5148544;28;20022;-69
2022/01/17 12:03:25;;;;;;;5.18;2.55;;;;;;;18.97;29.27;96279.75;5148163;27;20086;-68
2022/01/17 12:05:53;;;;;;;8.88;3.65;;;;;;;18.96;29.41;96281.63;5141505;28;20236;-69